Acton, Montana
Current Conditions -  °F | °C
As of 5:53 PM on Friday 28 Nov 2014 (Local Time) from KBIL Reporting Station
Few Clouds Few Clouds  
Wind Chill: 52°   Ceiling: Unl
Heat Index: 52°   Visibility: 10mi
Dew Point: 26°   Wind: 10mph
Humidity: 37%   Direction: 240°WSW
Pressure: 29.45"   Gusts: NA
Location:  45.93°N, 108.69°W
Report Text: KBIL 290053Z 24009KT 10SM FEW110 11/M03 A2945 RMK AO2 SLP969 T01111033
Loading
Personal Weather Stations






























Interactive Weather Map New forecast layout! Learn more

10-Day Weather Forecast

Advertisements
Track Severe Weather on mobile